createdAt,value
2023-02-11T00:02:32.364Z,14.93
2023-02-11T00:05:23.681Z,14.73
2023-02-11T00:08:23.775Z,14.43
2023-02-11T00:11:05.976Z,13.45
2023-02-11T00:13:55.757Z,10.57
2023-02-11T00:16:37.682Z,13.00
2023-02-11T00:19:26.670Z,14.25
2023-02-11T00:22:10.380Z,12.82
2023-02-11T00:24:58.765Z,11.25
2023-02-11T00:27:41.226Z,11.57
2023-02-11T00:30:29.836Z,13.98
2023-02-11T00:33:24.704Z,18.35
2023-02-11T00:36:07.830Z,9.77
2023-02-11T00:38:59.721Z,15.82
2023-02-11T00:41:43.008Z,13.65
2023-02-11T00:44:31.741Z,12.68
2023-02-11T00:47:16.594Z,13.40
2023-02-11T00:50:07.748Z,11.38
2023-02-11T00:52:49.660Z,13.38
2023-02-11T00:55:40.164Z,11.07
2023-02-11T00:58:28.687Z,16.13
2023-02-11T01:01:12.638Z,11.40
2023-02-11T01:04:01.737Z,15.25
2023-02-11T01:06:43.923Z,15.75
2023-02-11T01:09:32.696Z,14.43
2023-02-11T01:12:16.878Z,14.82
2023-02-11T01:15:04.674Z,12.10
2023-02-11T01:17:46.875Z,17.83
2023-02-11T01:20:35.778Z,12.52
2023-02-11T01:23:17.965Z,8.85
2023-02-11T01:26:06.791Z,12.43
2023-02-11T01:28:57.762Z,11.27
2023-02-11T01:31:52.758Z,13.02
2023-02-11T01:34:41.182Z,19.48
2023-02-11T01:37:22.914Z,14.23
2023-02-11T01:40:14.767Z,11.77
2023-02-11T01:42:56.997Z,15.40
2023-02-11T01:46:05.729Z,17.30
2023-02-11T01:48:51.912Z,16.67
2023-02-11T01:51:37.700Z,12.60
2023-02-11T01:54:47.719Z,12.77
2023-02-11T01:57:34.056Z,14.88
2023-02-11T02:00:27.696Z,13.68
2023-02-11T02:03:15.968Z,14.05
2023-02-11T02:06:10.780Z,14.93
2023-02-11T02:08:59.964Z,16.45
2023-02-11T02:11:48.751Z,11.73
2023-02-11T02:14:37.709Z,15.75
2023-02-11T02:17:33.270Z,11.50
2023-02-11T02:20:54.716Z,11.50
2023-02-11T02:23:55.610Z,11.18
2023-02-11T02:27:15.776Z,11.63
2023-02-11T02:30:42.699Z,12.90
2023-02-11T02:36:36.333Z,15.77
2023-02-11T02:39:28.683Z,14.95
2023-02-11T02:42:11.296Z,10.10
2023-02-11T02:45:03.786Z,12.15
2023-02-11T02:47:45.636Z,11.07
2023-02-11T02:50:43.780Z,11.45
2023-02-11T02:53:41.397Z,12.65
2023-02-11T02:56:42.023Z,13.48
2023-02-11T02:59:44.735Z,11.23
2023-02-11T03:02:33.967Z,17.42
2023-02-11T03:05:26.729Z,15.70
2023-02-11T03:08:15.959Z,15.90
2023-02-11T03:11:06.783Z,15.43
2023-02-11T03:13:51.009Z,14.85
2023-02-11T03:16:44.714Z,14.27
2023-02-11T03:19:30.022Z,12.88
2023-02-11T03:22:23.807Z,14.43
2023-02-11T03:25:09.899Z,13.05
2023-02-11T03:28:04.806Z,11.18
2023-02-11T03:30:52.961Z,16.77
2023-02-11T03:33:46.743Z,13.77
2023-02-11T03:36:34.293Z,13.80
2023-02-11T03:39:25.749Z,12.52
2023-02-11T03:42:18.742Z,11.18
2023-02-11T03:45:10.487Z,14.40
2023-02-11T03:48:02.730Z,13.07
2023-02-11T03:50:47.285Z,10.65
2023-02-11T03:53:36.736Z,13.80
2023-02-11T03:56:22.793Z,16.65
2023-02-11T03:59:12.755Z,12.35
2023-02-11T04:01:54.998Z,12.55
2023-02-11T04:04:46.821Z,14.00
2023-02-11T04:07:29.258Z,16.92
2023-02-11T04:10:18.727Z,16.65
2023-02-11T04:13:07.751Z,14.35
2023-02-11T04:15:51.192Z,16.63
2023-02-11T04:18:38.751Z,13.00
2023-02-11T04:21:20.981Z,16.38
2023-02-11T04:24:08.779Z,11.95
2023-02-11T04:26:50.999Z,14.50
2023-02-11T04:29:38.765Z,13.75
2023-02-11T04:32:22.963Z,19.63
2023-02-11T04:35:11.766Z,14.13
2023-02-11T04:38:00.781Z,14.93
2023-02-11T04:40:43.122Z,16.83
2023-02-11T04:43:31.817Z,14.85
2023-02-11T04:46:14.734Z,10.30
2023-02-11T04:49:04.773Z,15.55
2023-02-11T04:51:49.268Z,17.38
2023-02-11T04:54:38.827Z,16.25
2023-02-11T04:57:20.761Z,11.73
2023-02-11T05:00:09.837Z,13.18
2023-02-11T05:02:51.706Z,17.38
2023-02-11T05:05:41.818Z,14.27
2023-02-11T05:08:30.756Z,16.48
2023-02-11T05:11:13.063Z,17.23
2023-02-11T05:14:00.818Z,17.55
2023-02-11T05:16:43.063Z,20.38
2023-02-11T05:19:30.753Z,16.25
2023-02-11T05:22:13.942Z,18.90
2023-02-11T05:25:02.764Z,22.13
2023-02-11T05:27:44.986Z,21.20
2023-02-11T05:30:33.847Z,20.50
2023-02-11T05:33:28.761Z,22.98
2023-02-11T05:36:13.623Z,20.08
2023-02-11T05:39:03.770Z,18.83
2023-02-11T05:41:45.740Z,20.92
2023-02-11T05:44:34.758Z,22.80
2023-02-11T05:47:16.754Z,24.38
2023-02-11T05:50:05.833Z,20.77
2023-02-11T05:52:48.033Z,21.52
2023-02-11T05:55:37.797Z,23.77
2023-02-11T05:58:25.802Z,20.40
2023-02-11T06:01:07.987Z,20.27
2023-02-11T06:03:57.968Z,19.38
2023-02-11T06:06:41.180Z,19.73
2023-02-11T06:09:28.835Z,27.92
2023-02-11T06:12:13.056Z,23.27
2023-02-11T06:15:10.611Z,27.05
2023-02-11T06:17:53.012Z,21.73
2023-02-11T06:20:41.782Z,25.77
2023-02-11T06:23:23.972Z,20.35
2023-02-11T06:26:14.776Z,28.38
2023-02-11T06:29:04.789Z,24.27
2023-02-11T06:31:59.868Z,28.35
2023-02-11T06:34:48.801Z,25.95
2023-02-11T06:37:31.123Z,25.55
2023-02-11T06:40:19.887Z,25.65
2023-02-11T06:43:02.039Z,23.60
2023-02-11T06:45:52.058Z,25.40
2023-02-11T06:48:34.029Z,24.80
2023-02-11T06:51:22.775Z,23.80
2023-02-11T06:54:11.824Z,30.83
2023-02-11T06:56:53.851Z,23.77
2023-02-11T06:59:42.868Z,26.42
2023-02-11T07:02:47.834Z,26.60
2023-02-11T07:05:35.875Z,24.33
2023-02-11T07:08:18.110Z,29.23
2023-02-11T07:11:05.797Z,31.33
2023-02-11T07:13:49.061Z,27.67
2023-02-11T07:16:37.921Z,30.27
2023-02-11T07:19:27.780Z,27.85
2023-02-11T07:22:09.657Z,24.95
2023-02-11T07:24:58.882Z,31.58
2023-02-11T07:27:41.369Z,24.27
2023-02-11T07:30:29.847Z,25.35
2023-02-11T07:33:24.823Z,27.00
2023-02-11T07:36:16.849Z,25.13
2023-02-11T07:38:59.002Z,26.35
2023-02-11T07:41:47.884Z,29.63
2023-02-11T07:44:40.219Z,30.55
2023-02-11T07:47:21.801Z,32.63
2023-02-11T07:50:10.808Z,31.42
2023-02-11T07:52:54.263Z,29.50
2023-02-11T07:55:42.866Z,33.50
2023-02-11T07:58:24.828Z,30.63
2023-02-11T08:01:16.910Z,32.95
2023-02-11T08:04:00.727Z,30.90
2023-02-11T08:06:56.537Z,32.40
2023-02-11T08:09:47.887Z,33.83
2023-02-11T08:12:30.022Z,36.20
2023-02-11T08:15:17.815Z,36.13
2023-02-11T08:18:00.007Z,33.95
2023-02-11T08:20:49.183Z,31.67
2023-02-11T08:23:31.070Z,34.28
2023-02-11T08:26:27.090Z,32.10
2023-02-11T08:29:11.068Z,38.42
2023-02-11T08:31:58.965Z,36.75
2023-02-11T08:34:41.360Z,34.03
2023-02-11T08:37:32.074Z,33.40
2023-02-11T08:40:22.840Z,35.20
2023-02-11T08:43:08.066Z,35.17
2023-02-11T08:45:56.901Z,42.35
2023-02-11T08:48:38.854Z,34.63
2023-02-11T08:51:30.916Z,41.20
2023-02-11T08:54:13.142Z,39.08
2023-02-11T08:57:05.910Z,39.28
2023-02-11T08:59:49.125Z,38.65
2023-02-11T09:02:37.980Z,38.78
2023-02-11T09:05:25.924Z,41.80
2023-02-11T09:08:07.994Z,35.15
2023-02-11T09:10:56.922Z,36.85
2023-02-11T09:13:39.397Z,39.30
2023-02-11T09:16:30.880Z,39.58
2023-02-11T09:19:14.037Z,45.10
2023-02-11T09:22:01.798Z,45.97
2023-02-11T09:24:44.002Z,46.97
2023-02-11T09:27:31.905Z,47.05
2023-02-11T09:30:22.977Z,53.22
2023-02-11T09:33:13.084Z,41.72
2023-02-11T09:35:54.809Z,52.50
2023-02-11T09:38:36.809Z,45.58
2023-02-11T09:41:51.827Z,55.42
2023-02-11T09:44:36.062Z,46.72
2023-02-11T09:47:36.923Z,110.00
2023-02-11T09:50:25.252Z,54.97
2023-02-11T09:53:18.957Z,48.75
2023-02-11T09:56:08.813Z,39.55
2023-02-11T09:58:52.032Z,42.38
2023-02-11T10:01:47.951Z,60.38
2023-02-11T10:04:48.100Z,50.00
2023-02-11T10:07:45.843Z,44.72
2023-02-11T10:10:45.171Z,46.90
2023-02-11T10:13:55.898Z,52.03
2023-02-11T10:16:50.153Z,42.38
2023-02-11T10:19:50.846Z,41.22
2023-02-11T10:22:41.342Z,41.00
2023-02-11T10:25:32.886Z,41.22
2023-02-11T10:28:27.902Z,42.83
2023-02-11T10:31:15.072Z,45.22
2023-02-11T10:34:08.843Z,43.58
2023-02-11T10:36:51.045Z,38.47
2023-02-11T10:39:42.867Z,46.85
2023-02-11T10:42:26.197Z,42.03
2023-02-11T10:45:22.896Z,40.30
2023-02-11T10:48:07.380Z,39.38
2023-02-11T10:50:56.901Z,44.83
2023-02-11T10:53:38.989Z,42.67
2023-02-11T10:56:37.934Z,44.42
2023-02-11T10:59:32.975Z,48.63
2023-02-11T11:02:32.066Z,50.50
2023-02-11T11:05:29.053Z,46.25
2023-02-11T11:08:14.076Z,43.45
2023-02-11T11:11:13.890Z,41.38
2023-02-11T11:14:05.126Z,46.05
2023-02-11T11:17:00.874Z,45.75
2023-02-11T11:19:43.104Z,47.55
2023-02-11T11:22:31.888Z,43.33
2023-02-11T11:25:33.114Z,46.75
2023-02-11T11:28:30.927Z,47.45
2023-02-11T11:31:29.036Z,50.85
2023-02-11T11:34:30.144Z,47.08
2023-02-11T11:37:19.971Z,43.83
2023-02-11T11:40:08.663Z,46.20
2023-02-11T11:42:56.855Z,44.13
2023-02-11T11:45:38.977Z,43.90
2023-02-11T11:48:35.884Z,48.15
2023-02-11T11:51:18.441Z,51.30
2023-02-11T11:57:10.862Z,46.38
2023-02-11T11:59:59.961Z,45.60
2023-02-11T12:03:11.960Z,50.05
2023-02-11T12:06:09.902Z,45.08
2023-02-11T12:09:07.977Z,53.15
2023-02-11T12:12:07.448Z,47.92
2023-02-11T12:15:03.977Z,42.25
2023-02-11T12:18:10.128Z,49.13
2023-02-11T12:21:18.884Z,47.95
2023-02-11T12:24:17.694Z,49.03
2023-02-11T12:27:13.888Z,45.40
2023-02-11T12:30:05.765Z,49.38
2023-02-11T12:33:02.874Z,50.05
2023-02-11T12:35:56.086Z,47.80
2023-02-11T12:39:04.010Z,48.08
2023-02-11T12:42:29.912Z,47.50
2023-02-11T12:45:27.524Z,48.58
2023-02-11T12:48:29.014Z,47.58
2023-02-11T12:51:19.765Z,42.45
2023-02-11T12:54:27.973Z,46.67
2023-02-11T12:57:26.165Z,46.60
2023-02-11T13:00:14.887Z,46.65
2023-02-11T13:03:02.450Z,41.00
2023-02-11T13:05:55.906Z,45.28
2023-02-11T13:08:41.746Z,48.28
2023-02-11T13:11:36.914Z,45.63
2023-02-11T13:14:42.007Z,42.22
2023-02-11T13:17:36.457Z,43.78
2023-02-11T13:20:33.978Z,42.38
2023-02-11T13:23:24.689Z,48.35
2023-02-11T13:26:20.037Z,50.45
2023-02-11T13:29:18.946Z,45.50
2023-02-11T13:32:09.080Z,48.42
2023-02-11T13:34:56.966Z,49.88
2023-02-11T13:37:49.978Z,45.38
2023-02-11T13:40:34.978Z,44.30
2023-02-11T13:43:36.894Z,41.67
2023-02-11T13:46:28.066Z,44.17
2023-02-11T13:49:10.161Z,51.22
2023-02-11T13:51:59.942Z,49.53
2023-02-11T13:54:45.181Z,49.80
2023-02-11T13:57:44.970Z,50.05
2023-02-11T14:00:58.586Z,42.25
2023-02-11T14:04:44.065Z,46.05
2023-02-11T14:08:01.914Z,44.42
2023-02-11T14:10:52.692Z,44.83
2023-02-11T14:13:43.083Z,46.00
2023-02-11T14:16:37.284Z,40.85
2023-02-11T14:19:45.986Z,45.30
2023-02-11T14:22:37.934Z,49.42
2023-02-11T14:25:29.242Z,51.20
2023-02-11T14:28:26.046Z,47.55
2023-02-11T14:31:15.137Z,52.30
2023-02-11T14:34:40.919Z,46.75
2023-02-11T14:37:37.194Z,52.58
2023-02-11T14:40:36.982Z,52.90
2023-02-11T14:43:22.216Z,43.70
2023-02-11T14:46:11.071Z,47.45
2023-02-11T14:49:01.935Z,47.10
2023-02-11T14:51:45.563Z,47.30
2023-02-11T14:54:36.953Z,45.95
2023-02-11T14:57:35.990Z,48.58
2023-02-11T15:00:27.076Z,52.00
2023-02-11T15:03:09.230Z,47.30
2023-02-11T15:06:03.031Z,51.50
2023-02-11T15:08:52.185Z,46.05
2023-02-11T15:11:45.938Z,49.90
2023-02-11T15:14:38.910Z,47.38
2023-02-11T15:17:24.047Z,45.35
2023-02-11T15:20:16.950Z,50.38
2023-02-11T15:23:02.380Z,49.70
2023-02-11T15:26:01.926Z,50.72
2023-02-11T15:28:52.071Z,45.70
2023-02-11T15:31:42.117Z,47.78
2023-02-11T15:34:24.310Z,44.47
2023-02-11T15:37:13.021Z,48.55
2023-02-11T15:40:08.926Z,48.30
2023-02-11T15:42:58.856Z,51.25
2023-02-11T15:45:53.008Z,45.92
2023-02-11T15:48:38.354Z,42.30
2023-02-11T15:51:35.045Z,47.28
2023-02-11T15:54:20.842Z,44.90
2023-02-11T15:57:16.573Z,49.33
2023-02-11T16:00:04.411Z,44.67
2023-02-11T16:05:52.049Z,49.60
2023-02-11T16:08:35.523Z,55.55
2023-02-11T16:11:39.985Z,46.97
2023-02-11T16:14:24.605Z,48.67
2023-02-11T16:17:17.960Z,46.70
2023-02-11T16:19:59.931Z,47.90
2023-02-11T16:22:48.966Z,48.17
2023-02-11T16:25:31.043Z,47.28
2023-02-11T16:28:19.978Z,48.25
2023-02-11T16:31:02.716Z,50.67
2023-02-11T16:33:53.013Z,46.22
2023-02-11T16:36:48.025Z,49.60
2023-02-11T16:39:30.059Z,51.67
2023-02-11T16:42:19.029Z,48.28
2023-02-11T16:45:00.919Z,51.38
2023-02-11T16:47:50.055Z,50.10
2023-02-11T16:50:33.258Z,92.03
2023-02-11T16:53:21.988Z,50.20
2023-02-11T16:56:17.778Z,52.72
2023-02-11T16:59:05.961Z,47.42
2023-02-11T17:01:50.363Z,47.67
2023-02-11T17:04:35.035Z,50.85
2023-02-11T17:07:27.050Z,54.80
2023-02-11T17:10:09.232Z,48.53
2023-02-11T17:12:59.059Z,47.85
2023-02-11T17:15:41.171Z,50.28
2023-02-11T17:18:30.002Z,51.17
2023-02-11T17:21:14.166Z,52.85
2023-02-11T17:24:04.075Z,54.17
2023-02-11T17:26:46.191Z,50.80
2023-02-11T17:29:34.115Z,50.58
2023-02-11T17:32:23.088Z,49.10
2023-02-11T17:35:06.854Z,50.92
2023-02-11T17:37:55.990Z,49.47
2023-02-11T17:40:39.403Z,47.67
2023-02-11T17:43:27.981Z,48.88
2023-02-11T17:46:10.519Z,50.60
2023-02-11T17:48:58.993Z,45.20
2023-02-11T17:51:41.256Z,53.63
2023-02-11T17:54:33.054Z,53.40
2023-02-11T17:57:22.986Z,48.75
2023-02-11T18:00:05.273Z,65.57
2023-02-11T18:02:57.636Z,47.08
2023-02-11T18:05:42.220Z,53.92
2023-02-11T18:08:29.994Z,57.08
2023-02-11T18:11:16.910Z,52.92
2023-02-11T18:14:08.027Z,51.90
2023-02-11T18:16:50.442Z,49.72
2023-02-11T18:19:41.994Z,51.42
2023-02-11T18:22:24.564Z,45.88
2023-02-11T18:25:13.979Z,47.60
2023-02-11T18:28:03.150Z,48.85
2023-02-11T18:30:46.720Z,44.38
2023-02-11T18:33:34.996Z,49.42
2023-02-11T18:36:18.054Z,46.47
2023-02-11T18:39:07.090Z,53.50
2023-02-11T18:41:49.983Z,49.03
2023-02-11T18:44:39.060Z,44.55
2023-02-11T18:47:22.491Z,49.53
2023-02-11T18:50:11.045Z,47.70
2023-02-11T18:52:52.995Z,46.42
2023-02-11T18:55:34.999Z,47.55
2023-02-11T18:58:30.018Z,43.92
2023-02-11T19:01:14.472Z,48.40
2023-02-11T19:04:05.103Z,42.95
2023-02-11T19:06:49.452Z,45.53
2023-02-11T19:09:38.074Z,52.30
2023-02-11T19:12:20.088Z,44.30
2023-02-11T19:15:09.020Z,45.00
2023-02-11T19:17:51.082Z,48.42
2023-02-11T19:20:41.126Z,44.72
2023-02-11T19:23:29.091Z,45.28
2023-02-11T19:26:11.246Z,42.65
2023-02-11T19:29:00.015Z,44.80
2023-02-11T19:31:42.430Z,45.72
2023-02-11T19:34:30.132Z,42.47
2023-02-11T19:37:13.640Z,47.83
2023-02-11T19:40:02.029Z,44.05
2023-02-11T19:42:44.282Z,46.75
2023-02-11T19:45:33.034Z,52.20
2023-02-11T19:48:15.246Z,45.08
2023-02-11T19:51:04.192Z,46.30
2023-02-11T19:53:54.051Z,46.15
2023-02-11T19:56:49.258Z,45.63
2023-02-11T19:59:38.036Z,41.83
2023-02-11T20:02:20.249Z,42.42
2023-02-11T20:05:09.015Z,44.08
2023-02-11T20:07:51.307Z,52.92
2023-02-11T20:10:42.078Z,50.67
2023-02-11T20:13:24.285Z,52.92
2023-02-11T20:16:14.199Z,51.10
2023-02-11T20:19:04.105Z,44.28
2023-02-11T20:21:47.770Z,44.17
2023-02-11T20:24:39.112Z,48.95
2023-02-11T20:27:22.369Z,50.88
2023-02-11T20:30:11.105Z,44.60
2023-02-11T20:32:52.952Z,48.08
2023-02-11T20:35:42.100Z,45.35
2023-02-11T20:38:24.079Z,45.67
2023-02-11T20:41:20.187Z,43.60
2023-02-11T20:44:13.059Z,47.88
2023-02-11T20:46:55.534Z,48.30
2023-02-11T20:49:43.051Z,48.30
2023-02-11T20:52:25.298Z,48.75
2023-02-11T20:55:14.101Z,42.95
2023-02-11T20:58:02.260Z,53.03
2023-02-11T21:00:45.083Z,40.63
2023-02-11T21:03:27.065Z,42.15
2023-02-11T21:06:16.221Z,42.25
2023-02-11T21:09:11.068Z,48.72
2023-02-11T21:11:56.899Z,42.45
2023-02-11T21:14:46.046Z,41.85
2023-02-11T21:17:29.828Z,42.55
2023-02-11T21:20:18.220Z,44.55
2023-02-11T21:23:00.038Z,42.22
2023-02-11T21:25:49.049Z,41.00
2023-02-11T21:28:31.021Z,45.65
2023-02-11T21:31:21.213Z,42.10
2023-02-11T21:34:04.793Z,45.20
2023-02-11T21:36:46.167Z,41.83
2023-02-11T21:39:35.109Z,43.88
2023-02-11T21:42:17.110Z,48.63
2023-02-11T21:45:06.035Z,41.70
2023-02-11T21:47:47.953Z,40.80
2023-02-11T21:50:38.071Z,39.67
2023-02-11T21:53:20.237Z,43.55
2023-02-11T21:56:18.145Z,38.65
2023-02-11T21:59:00.829Z,36.38
2023-02-11T22:01:49.127Z,36.22
2023-02-11T22:04:37.139Z,33.65
2023-02-11T22:07:22.914Z,36.25
2023-02-11T22:10:12.167Z,32.47
2023-02-11T22:12:54.299Z,36.50
2023-02-11T22:18:27.320Z,31.92
2023-02-11T22:21:18.092Z,31.08
2023-02-11T22:24:02.241Z,36.80
2023-02-11T22:26:50.165Z,36.65
2023-02-11T22:29:39.089Z,32.85
2023-02-11T22:32:21.140Z,30.92
2023-02-11T22:35:10.096Z,30.05
2023-02-11T22:37:52.282Z,27.95
2023-02-11T22:40:42.136Z,30.17
2023-02-11T22:43:24.120Z,31.88
2023-02-11T22:46:15.177Z,27.98
2023-02-11T22:48:57.374Z,25.77
2023-02-11T22:51:46.125Z,26.50
2023-02-11T22:54:43.182Z,28.50
2023-02-11T22:57:40.114Z,27.83
2023-02-11T23:00:32.187Z,25.25
2023-02-11T23:03:15.361Z,25.30
2023-02-11T23:06:06.183Z,27.52
2023-02-11T23:08:49.369Z,27.88
2023-02-11T23:11:39.108Z,23.02
2023-02-11T23:14:22.335Z,23.30
2023-02-11T23:17:11.100Z,23.95
2023-02-11T23:20:00.220Z,22.58
2023-02-11T23:22:42.054Z,24.63
2023-02-11T23:25:31.138Z,23.33
2023-02-11T23:28:13.856Z,23.17
2023-02-11T23:31:03.159Z,21.70
2023-02-11T23:33:45.337Z,21.92
2023-02-11T23:36:36.101Z,21.52
2023-02-11T23:39:18.129Z,20.58
2023-02-11T23:42:07.100Z,19.10
2023-02-11T23:44:55.118Z,20.42
2023-02-11T23:47:39.239Z,17.08
2023-02-11T23:50:28.206Z,15.52
2023-02-11T23:53:10.301Z,15.40
2023-02-11T23:55:59.109Z,13.07
2023-02-11T23:58:51.379Z,12.05
